sensor_id;sensor_type;location;lat;lon;timestamp;P1;durP1;ratioP1;P2;durP2;ratioP2
18526;SDS011;9393;42.158;24.748;2022-08-19T00:01:35;7.30;;;6.45;;
18526;SDS011;9393;42.158;24.748;2022-08-19T00:04:40;13.75;;;7.90;;
18526;SDS011;9393;42.158;24.748;2022-08-19T00:07:43;9.60;;;6.80;;
18526;SDS011;9393;42.158;24.748;2022-08-19T00:10:48;11.70;;;6.13;;
18526;SDS011;9393;42.158;24.748;2022-08-19T00:13:52;7.25;;;5.75;;
18526;SDS011;9393;42.158;24.748;2022-08-19T00:16:57;11.25;;;6.60;;
18526;SDS011;9393;42.158;24.748;2022-08-19T00:20:00;8.82;;;6.68;;
18526;SDS011;9393;42.158;24.748;2022-08-19T00:23:04;9.07;;;6.80;;
18526;SDS011;9393;42.158;24.748;2022-08-19T00:26:09;11.13;;;6.40;;
18526;SDS011;9393;42.158;24.748;2022-08-19T00:29:14;11.25;;;6.45;;
18526;SDS011;9393;42.158;24.748;2022-08-19T00:32:20;9.43;;;6.22;;
18526;SDS011;9393;42.158;24.748;2022-08-19T00:35:24;9.68;;;6.57;;
18526;SDS011;9393;42.158;24.748;2022-08-19T00:38:29;7.50;;;6.20;;
18526;SDS011;9393;42.158;24.748;2022-08-19T00:41:40;6.85;;;5.90;;
18526;SDS011;9393;42.158;24.748;2022-08-19T00:44:47;8.00;;;6.10;;
18526;SDS011;9393;42.158;24.748;2022-08-19T00:47:52;6.88;;;6.18;;
18526;SDS011;9393;42.158;24.748;2022-08-19T00:50:55;7.85;;;6.78;;
18526;SDS011;9393;42.158;24.748;2022-08-19T00:53:58;10.85;;;6.10;;
18526;SDS011;9393;42.158;24.748;2022-08-19T00:57:06;8.73;;;6.47;;
18526;SDS011;9393;42.158;24.748;2022-08-19T01:00:16;7.20;;;6.50;;
18526;SDS011;9393;42.158;24.748;2022-08-19T01:03:21;12.15;;;5.97;;
18526;SDS011;9393;42.158;24.748;2022-08-19T01:06:25;10.55;;;6.30;;
18526;SDS011;9393;42.158;24.748;2022-08-19T01:09:29;7.30;;;6.25;;
18526;SDS011;9393;42.158;24.748;2022-08-19T01:12:35;6.47;;;5.88;;
18526;SDS011;9393;42.158;24.748;2022-08-19T01:15:40;6.78;;;5.68;;
18526;SDS011;9393;42.158;24.748;2022-08-19T01:18:46;9.98;;;6.65;;
18526;SDS011;9393;42.158;24.748;2022-08-19T01:21:52;11.65;;;6.75;;
18526;SDS011;9393;42.158;24.748;2022-08-19T01:25:06;10.60;;;6.50;;
18526;SDS011;9393;42.158;24.748;2022-08-19T01:28:16;8.55;;;6.40;;
18526;SDS011;9393;42.158;24.748;2022-08-19T01:31:40;12.02;;;7.25;;
18526;SDS011;9393;42.158;24.748;2022-08-19T01:34:43;8.52;;;6.13;;
18526;SDS011;9393;42.158;24.748;2022-08-19T01:37:49;7.30;;;6.53;;
18526;SDS011;9393;42.158;24.748;2022-08-19T01:40:55;10.63;;;6.68;;
18526;SDS011;9393;42.158;24.748;2022-08-19T01:43:58;9.02;;;6.75;;
18526;SDS011;9393;42.158;24.748;2022-08-19T01:47:19;7.68;;;6.53;;
18526;SDS011;9393;42.158;24.748;2022-08-19T01:50:23;9.43;;;6.70;;
18526;SDS011;9393;42.158;24.748;2022-08-19T01:53:27;11.18;;;7.63;;
18526;SDS011;9393;42.158;24.748;2022-08-19T01:56:35;9.90;;;7.10;;
18526;SDS011;9393;42.158;24.748;2022-08-19T01:59:40;9.00;;;7.65;;
18526;SDS011;9393;42.158;24.748;2022-08-19T02:02:45;9.68;;;7.65;;
18526;SDS011;9393;42.158;24.748;2022-08-19T02:05:53;8.85;;;7.95;;
18526;SDS011;9393;42.158;24.748;2022-08-19T02:08:58;10.52;;;8.15;;
18526;SDS011;9393;42.158;24.748;2022-08-19T02:12:03;12.15;;;8.35;;
18526;SDS011;9393;42.158;24.748;2022-08-19T02:15:07;13.10;;;8.63;;
18526;SDS011;9393;42.158;24.748;2022-08-19T02:18:11;10.38;;;8.75;;
18526;SDS011;9393;42.158;24.748;2022-08-19T02:21:15;14.88;;;9.00;;
18526;SDS011;9393;42.158;24.748;2022-08-19T02:24:20;11.07;;;8.88;;
18526;SDS011;9393;42.158;24.748;2022-08-19T02:27:24;11.00;;;8.88;;
18526;SDS011;9393;42.158;24.748;2022-08-19T02:30:28;10.32;;;9.23;;
18526;SDS011;9393;42.158;24.748;2022-08-19T02:33:31;11.63;;;9.13;;
18526;SDS011;9393;42.158;24.748;2022-08-19T02:36:34;11.27;;;8.40;;
18526;SDS011;9393;42.158;24.748;2022-08-19T02:39:43;10.35;;;8.75;;
18526;SDS011;9393;42.158;24.748;2022-08-19T02:42:46;13.32;;;8.77;;
18526;SDS011;9393;42.158;24.748;2022-08-19T02:45:50;9.40;;;8.40;;
18526;SDS011;9393;42.158;24.748;2022-08-19T02:48:55;11.13;;;8.48;;
18526;SDS011;9393;42.158;24.748;2022-08-19T02:52:01;13.80;;;8.52;;
18526;SDS011;9393;42.158;24.748;2022-08-19T02:55:05;13.57;;;8.10;;
18526;SDS011;9393;42.158;24.748;2022-08-19T02:58:11;10.55;;;8.60;;
18526;SDS011;9393;42.158;24.748;2022-08-19T03:01:19;9.10;;;7.40;;
18526;SDS011;9393;42.158;24.748;2022-08-19T03:04:24;15.40;;;8.13;;
18526;SDS011;9393;42.158;24.748;2022-08-19T03:07:27;12.95;;;8.30;;
18526;SDS011;9393;42.158;24.748;2022-08-19T03:10:32;9.75;;;8.02;;
18526;SDS011;9393;42.158;24.748;2022-08-19T03:13:36;10.20;;;8.05;;
18526;SDS011;9393;42.158;24.748;2022-08-19T03:16:40;13.30;;;8.40;;
18526;SDS011;9393;42.158;24.748;2022-08-19T03:19:45;9.70;;;7.93;;
18526;SDS011;9393;42.158;24.748;2022-08-19T03:22:48;12.15;;;8.70;;
18526;SDS011;9393;42.158;24.748;2022-08-19T03:25:52;10.60;;;7.97;;
18526;SDS011;9393;42.158;24.748;2022-08-19T03:29:17;9.68;;;8.10;;
18526;SDS011;9393;42.158;24.748;2022-08-19T03:32:31;12.75;;;7.65;;
18526;SDS011;9393;42.158;24.748;2022-08-19T03:35:35;10.43;;;7.97;;
18526;SDS011;9393;42.158;24.748;2022-08-19T03:38:40;10.43;;;8.02;;
18526;SDS011;9393;42.158;24.748;2022-08-19T03:41:46;11.90;;;8.07;;
18526;SDS011;9393;42.158;24.748;2022-08-19T03:45:12;9.80;;;7.60;;
18526;SDS011;9393;42.158;24.748;2022-08-19T03:48:16;16.33;;;8.95;;
18526;SDS011;9393;42.158;24.748;2022-08-19T03:51:20;13.77;;;8.48;;
18526;SDS011;9393;42.158;24.748;2022-08-19T03:54:31;15.43;;;9.70;;
18526;SDS011;9393;42.158;24.748;2022-08-19T03:57:37;13.57;;;8.73;;
18526;SDS011;9393;42.158;24.748;2022-08-19T04:00:42;15.95;;;9.02;;
18526;SDS011;9393;42.158;24.748;2022-08-19T04:03:47;16.25;;;8.38;;
18526;SDS011;9393;42.158;24.748;2022-08-19T04:06:51;11.20;;;8.77;;
18526;SDS011;9393;42.158;24.748;2022-08-19T04:09:55;18.15;;;9.55;;
18526;SDS011;9393;42.158;24.748;2022-08-19T04:12:58;16.63;;;9.52;;
18526;SDS011;9393;42.158;24.748;2022-08-19T04:16:03;18.98;;;10.13;;
18526;SDS011;9393;42.158;24.748;2022-08-19T04:19:07;19.23;;;10.85;;
18526;SDS011;9393;42.158;24.748;2022-08-19T04:22:10;19.75;;;10.75;;
18526;SDS011;9393;42.158;24.748;2022-08-19T04:25:15;20.13;;;10.48;;
18526;SDS011;9393;42.158;24.748;2022-08-19T04:28:18;27.50;;;11.02;;
18526;SDS011;9393;42.158;24.748;2022-08-19T04:31:24;24.90;;;11.27;;
18526;SDS011;9393;42.158;24.748;2022-08-19T04:34:29;28.13;;;11.23;;
18526;SDS011;9393;42.158;24.748;2022-08-19T04:37:32;20.25;;;11.00;;
18526;SDS011;9393;42.158;24.748;2022-08-19T04:40:39;12.60;;;9.73;;
18526;SDS011;9393;42.158;24.748;2022-08-19T04:44:01;23.40;;;10.45;;
18526;SDS011;9393;42.158;24.748;2022-08-19T04:47:06;15.07;;;10.23;;
18526;SDS011;9393;42.158;24.748;2022-08-19T04:50:11;54.03;;;16.08;;
18526;SDS011;9393;42.158;24.748;2022-08-19T04:53:19;24.27;;;10.50;;
18526;SDS011;9393;42.158;24.748;2022-08-19T04:56:22;24.17;;;11.30;;
18526;SDS011;9393;42.158;24.748;2022-08-19T04:59:27;20.38;;;11.25;;
18526;SDS011;9393;42.158;24.748;2022-08-19T05:02:32;13.35;;;10.05;;
18526;SDS011;9393;42.158;24.748;2022-08-19T05:05:38;15.10;;;9.68;;
18526;SDS011;9393;42.158;24.748;2022-08-19T05:08:46;16.95;;;10.07;;
18526;SDS011;9393;42.158;24.748;2022-08-19T05:11:50;19.13;;;10.50;;
18526;SDS011;9393;42.158;24.748;2022-08-19T05:14:55;17.38;;;9.57;;
18526;SDS011;9393;42.158;24.748;2022-08-19T05:18:00;14.70;;;9.60;;
18526;SDS011;9393;42.158;24.748;2022-08-19T05:21:36;14.52;;;9.27;;
18526;SDS011;9393;42.158;24.748;2022-08-19T05:24:57;9.27;;;7.18;;
18526;SDS011;9393;42.158;24.748;2022-08-19T05:28:13;11.20;;;7.60;;
18526;SDS011;9393;42.158;24.748;2022-08-19T05:31:17;10.40;;;7.18;;
18526;SDS011;9393;42.158;24.748;2022-08-19T05:34:22;9.23;;;6.40;;
18526;SDS011;9393;42.158;24.748;2022-08-19T05:37:27;14.25;;;6.82;;
18526;SDS011;9393;42.158;24.748;2022-08-19T05:40:31;13.68;;;7.40;;
18526;SDS011;9393;42.158;24.748;2022-08-19T05:43:37;10.45;;;6.35;;
18526;SDS011;9393;42.158;24.748;2022-08-19T05:46:41;10.02;;;7.05;;
18526;SDS011;9393;42.158;24.748;2022-08-19T05:49:49;10.48;;;7.13;;
18526;SDS011;9393;42.158;24.748;2022-08-19T05:52:53;9.15;;;7.30;;
18526;SDS011;9393;42.158;24.748;2022-08-19T05:55:56;10.07;;;8.05;;
18526;SDS011;9393;42.158;24.748;2022-08-19T05:59:00;13.80;;;7.93;;
18526;SDS011;9393;42.158;24.748;2022-08-19T06:02:04;10.07;;;7.03;;
18526;SDS011;9393;42.158;24.748;2022-08-19T06:05:10;12.98;;;8.13;;
18526;SDS011;9393;42.158;24.748;2022-08-19T06:08:14;10.80;;;7.40;;
18526;SDS011;9393;42.158;24.748;2022-08-19T06:11:20;14.75;;;7.90;;
18526;SDS011;9393;42.158;24.748;2022-08-19T06:14:26;16.30;;;8.07;;
18526;SDS011;9393;42.158;24.748;2022-08-19T06:17:33;10.73;;;7.13;;
18526;SDS011;9393;42.158;24.748;2022-08-19T06:20:38;14.38;;;8.30;;
18526;SDS011;9393;42.158;24.748;2022-08-19T06:23:56;10.63;;;7.88;;
18526;SDS011;9393;42.158;24.748;2022-08-19T06:27:00;8.13;;;6.97;;
18526;SDS011;9393;42.158;24.748;2022-08-19T06:30:04;10.27;;;7.10;;
18526;SDS011;9393;42.158;24.748;2022-08-19T06:33:09;11.82;;;7.68;;
18526;SDS011;9393;42.158;24.748;2022-08-19T06:36:17;8.00;;;7.07;;
18526;SDS011;9393;42.158;24.748;2022-08-19T06:39:26;10.85;;;7.40;;
18526;SDS011;9393;42.158;24.748;2022-08-19T06:42:31;12.90;;;7.38;;
18526;SDS011;9393;42.158;24.748;2022-08-19T06:45:36;10.77;;;7.53;;
18526;SDS011;9393;42.158;24.748;2022-08-19T06:48:41;13.23;;;6.95;;
18526;SDS011;9393;42.158;24.748;2022-08-19T06:51:48;16.17;;;12.10;;
18526;SDS011;9393;42.158;24.748;2022-08-19T06:54:52;11.05;;;8.38;;
18526;SDS011;9393;42.158;24.748;2022-08-19T06:58:01;14.82;;;10.55;;
18526;SDS011;9393;42.158;24.748;2022-08-19T07:01:06;11.95;;;8.48;;
18526;SDS011;9393;42.158;24.748;2022-08-19T07:04:10;7.78;;;6.97;;
18526;SDS011;9393;42.158;24.748;2022-08-19T07:07:14;7.95;;;7.10;;
18526;SDS011;9393;42.158;24.748;2022-08-19T07:10:22;11.85;;;7.13;;
18526;SDS011;9393;42.158;24.748;2022-08-19T07:13:26;10.65;;;6.95;;
18526;SDS011;9393;42.158;24.748;2022-08-19T07:16:29;9.63;;;6.53;;
18526;SDS011;9393;42.158;24.748;2022-08-19T07:19:34;11.13;;;6.85;;
18526;SDS011;9393;42.158;24.748;2022-08-19T07:22:39;9.82;;;6.75;;
18526;SDS011;9393;42.158;24.748;2022-08-19T07:25:43;13.18;;;6.57;;
18526;SDS011;9393;42.158;24.748;2022-08-19T07:28:53;10.40;;;7.32;;
18526;SDS011;9393;42.158;24.748;2022-08-19T07:31:58;11.82;;;6.95;;
18526;SDS011;9393;42.158;24.748;2022-08-19T07:35:02;9.50;;;6.55;;
18526;SDS011;9393;42.158;24.748;2022-08-19T07:38:08;14.80;;;6.95;;
18526;SDS011;9393;42.158;24.748;2022-08-19T07:41:13;7.03;;;5.80;;
18526;SDS011;9393;42.158;24.748;2022-08-19T07:44:18;11.00;;;6.05;;
18526;SDS011;9393;42.158;24.748;2022-08-19T07:47:22;8.88;;;5.82;;
18526;SDS011;9393;42.158;24.748;2022-08-19T07:50:46;11.07;;;6.32;;
18526;SDS011;9393;42.158;24.748;2022-08-19T07:53:51;9.20;;;6.07;;
18526;SDS011;9393;42.158;24.748;2022-08-19T07:56:54;6.68;;;5.95;;
18526;SDS011;9393;42.158;24.748;2022-08-19T07:59:58;8.02;;;5.97;;
18526;SDS011;9393;42.158;24.748;2022-08-19T08:03:12;10.15;;;6.82;;
18526;SDS011;9393;42.158;24.748;2022-08-19T08:06:17;7.32;;;6.35;;
18526;SDS011;9393;42.158;24.748;2022-08-19T08:09:41;8.45;;;6.55;;
18526;SDS011;9393;42.158;24.748;2022-08-19T08:12:50;8.38;;;6.00;;
18526;SDS011;9393;42.158;24.748;2022-08-19T08:16:10;8.88;;;6.75;;
18526;SDS011;9393;42.158;24.748;2022-08-19T08:19:15;8.77;;;6.28;;
18526;SDS011;9393;42.158;24.748;2022-08-19T08:22:26;7.40;;;6.22;;
18526;SDS011;9393;42.158;24.748;2022-08-19T08:25:48;8.68;;;5.88;;
18526;SDS011;9393;42.158;24.748;2022-08-19T08:28:52;7.18;;;6.07;;
18526;SDS011;9393;42.158;24.748;2022-08-19T08:31:56;12.07;;;6.13;;
18526;SDS011;9393;42.158;24.748;2022-08-19T08:35:00;7.65;;;6.03;;
18526;SDS011;9393;42.158;24.748;2022-08-19T08:38:04;9.05;;;6.05;;
18526;SDS011;9393;42.158;24.748;2022-08-19T08:41:11;10.82;;;6.00;;
18526;SDS011;9393;42.158;24.748;2022-08-19T08:44:27;10.68;;;6.03;;
18526;SDS011;9393;42.158;24.748;2022-08-19T08:47:43;7.47;;;5.93;;
18526;SDS011;9393;42.158;24.748;2022-08-19T08:50:51;11.27;;;6.45;;
18526;SDS011;9393;42.158;24.748;2022-08-19T08:53:58;10.48;;;6.43;;
18526;SDS011;9393;42.158;24.748;2022-08-19T08:57:05;9.57;;;6.07;;
18526;SDS011;9393;42.158;24.748;2022-08-19T09:00:15;9.95;;;5.40;;
18526;SDS011;9393;42.158;24.748;2022-08-19T09:03:20;11.00;;;5.68;;
18526;SDS011;9393;42.158;24.748;2022-08-19T09:06:27;6.68;;;5.63;;
18526;SDS011;9393;42.158;24.748;2022-08-19T09:09:42;9.73;;;6.07;;
18526;SDS011;9393;42.158;24.748;2022-08-19T09:12:52;9.85;;;6.28;;
18526;SDS011;9393;42.158;24.748;2022-08-19T09:16:10;8.93;;;5.68;;
18526;SDS011;9393;42.158;24.748;2022-08-19T09:19:17;7.57;;;5.85;;
18526;SDS011;9393;42.158;24.748;2022-08-19T09:22:23;8.57;;;6.97;;
18526;SDS011;9393;42.158;24.748;2022-08-19T09:25:28;9.85;;;5.78;;
18526;SDS011;9393;42.158;24.748;2022-08-19T09:28:33;9.10;;;5.95;;
18526;SDS011;9393;42.158;24.748;2022-08-19T09:31:39;7.22;;;6.05;;
18526;SDS011;9393;42.158;24.748;2022-08-19T09:34:43;6.40;;;5.80;;
18526;SDS011;9393;42.158;24.748;2022-08-19T09:37:52;9.05;;;5.68;;
18526;SDS011;9393;42.158;24.748;2022-08-19T09:41:03;9.00;;;5.85;;
18526;SDS011;9393;42.158;24.748;2022-08-19T09:44:09;8.70;;;5.90;;
18526;SDS011;9393;42.158;24.748;2022-08-19T09:47:13;7.35;;;5.63;;
18526;SDS011;9393;42.158;24.748;2022-08-19T09:50:21;8.27;;;6.00;;
18526;SDS011;9393;42.158;24.748;2022-08-19T09:53:26;7.70;;;5.78;;
18526;SDS011;9393;42.158;24.748;2022-08-19T09:56:32;7.93;;;5.03;;
18526;SDS011;9393;42.158;24.748;2022-08-19T09:59:38;10.00;;;5.85;;
18526;SDS011;9393;42.158;24.748;2022-08-19T10:02:41;6.05;;;5.47;;
18526;SDS011;9393;42.158;24.748;2022-08-19T10:05:46;7.13;;;5.35;;
18526;SDS011;9393;42.158;24.748;2022-08-19T10:08:55;7.95;;;5.32;;
18526;SDS011;9393;42.158;24.748;2022-08-19T10:11:59;7.90;;;5.40;;
18526;SDS011;9393;42.158;24.748;2022-08-19T10:15:05;12.98;;;6.10;;
18526;SDS011;9393;42.158;24.748;2022-08-19T10:18:10;6.20;;;5.45;;
18526;SDS011;9393;42.158;24.748;2022-08-19T10:21:14;10.43;;;6.15;;
18526;SDS011;9393;42.158;24.748;2022-08-19T10:24:19;6.10;;;5.50;;
18526;SDS011;9393;42.158;24.748;2022-08-19T10:27:25;8.18;;;6.05;;
18526;SDS011;9393;42.158;24.748;2022-08-19T10:30:34;8.75;;;5.43;;
18526;SDS011;9393;42.158;24.748;2022-08-19T10:33:38;7.75;;;5.72;;
18526;SDS011;9393;42.158;24.748;2022-08-19T10:36:54;10.10;;;6.10;;
18526;SDS011;9393;42.158;24.748;2022-08-19T10:40:02;5.63;;;5.13;;
18526;SDS011;9393;42.158;24.748;2022-08-19T10:43:07;11.15;;;5.70;;
18526;SDS011;9393;42.158;24.748;2022-08-19T10:46:13;8.02;;;5.40;;
18526;SDS011;9393;42.158;24.748;2022-08-19T10:49:19;10.35;;;5.57;;
18526;SDS011;9393;42.158;24.748;2022-08-19T10:52:24;5.85;;;5.22;;
18526;SDS011;9393;42.158;24.748;2022-08-19T10:55:39;9.55;;;5.70;;
18526;SDS011;9393;42.158;24.748;2022-08-19T10:59:00;8.85;;;4.95;;
18526;SDS011;9393;42.158;24.748;2022-08-19T11:02:08;5.70;;;5.20;;
18526;SDS011;9393;42.158;24.748;2022-08-19T11:05:13;10.05;;;5.28;;
18526;SDS011;9393;42.158;24.748;2022-08-19T11:08:16;7.53;;;5.28;;
18526;SDS011;9393;42.158;24.748;2022-08-19T11:11:24;11.93;;;5.45;;
18526;SDS011;9393;42.158;24.748;2022-08-19T11:14:27;9.05;;;4.75;;
18526;SDS011;9393;42.158;24.748;2022-08-19T11:17:36;6.00;;;4.75;;
18526;SDS011;9393;42.158;24.748;2022-08-19T11:20:42;6.35;;;4.40;;
18526;SDS011;9393;42.158;24.748;2022-08-19T11:23:46;9.15;;;4.75;;
18526;SDS011;9393;42.158;24.748;2022-08-19T11:26:51;7.95;;;4.70;;
18526;SDS011;9393;42.158;24.748;2022-08-19T11:29:58;7.97;;;4.70;;
18526;SDS011;9393;42.158;24.748;2022-08-19T11:33:03;7.18;;;5.13;;
18526;SDS011;9393;42.158;24.748;2022-08-19T11:36:06;5.95;;;4.35;;
18526;SDS011;9393;42.158;24.748;2022-08-19T11:39:16;5.47;;;4.82;;
18526;SDS011;9393;42.158;24.748;2022-08-19T11:42:21;8.45;;;4.90;;
18526;SDS011;9393;42.158;24.748;2022-08-19T11:45:38;5.60;;;5.00;;
18526;SDS011;9393;42.158;24.748;2022-08-19T11:48:43;6.00;;;4.90;;
18526;SDS011;9393;42.158;24.748;2022-08-19T11:51:46;9.40;;;5.22;;
18526;SDS011;9393;42.158;24.748;2022-08-19T11:54:52;6.20;;;5.30;;
18526;SDS011;9393;42.158;24.748;2022-08-19T11:57:55;5.25;;;4.75;;
18526;SDS011;9393;42.158;24.748;2022-08-19T12:00:59;7.45;;;5.10;;
18526;SDS011;9393;42.158;24.748;2022-08-19T12:04:04;7.85;;;5.30;;
18526;SDS011;9393;42.158;24.748;2022-08-19T12:07:08;9.45;;;5.60;;
18526;SDS011;9393;42.158;24.748;2022-08-19T12:10:11;5.35;;;4.68;;
18526;SDS011;9393;42.158;24.748;2022-08-19T12:13:19;8.13;;;5.25;;
18526;SDS011;9393;42.158;24.748;2022-08-19T12:16:24;7.90;;;5.07;;
18526;SDS011;9393;42.158;24.748;2022-08-19T12:19:31;8.25;;;4.85;;
18526;SDS011;9393;42.158;24.748;2022-08-19T12:22:35;10.90;;;5.00;;
18526;SDS011;9393;42.158;24.748;2022-08-19T12:25:43;8.45;;;6.18;;
18526;SDS011;9393;42.158;24.748;2022-08-19T12:28:53;9.95;;;5.18;;
18526;SDS011;9393;42.158;24.748;2022-08-19T12:31:56;8.60;;;4.75;;
18526;SDS011;9393;42.158;24.748;2022-08-19T12:35:06;9.85;;;7.38;;
18526;SDS011;9393;42.158;24.748;2022-08-19T12:38:13;8.77;;;5.03;;
18526;SDS011;9393;42.158;24.748;2022-08-19T12:41:17;5.85;;;5.25;;
18526;SDS011;9393;42.158;24.748;2022-08-19T12:44:22;5.22;;;4.72;;
18526;SDS011;9393;42.158;24.748;2022-08-19T12:47:30;7.63;;;5.35;;
18526;SDS011;9393;42.158;24.748;2022-08-19T12:50:34;5.05;;;4.65;;
18526;SDS011;9393;42.158;24.748;2022-08-19T12:53:38;7.45;;;5.40;;
18526;SDS011;9393;42.158;24.748;2022-08-19T12:56:41;6.07;;;4.90;;
18526;SDS011;9393;42.158;24.748;2022-08-19T12:59:45;8.38;;;5.25;;
18526;SDS011;9393;42.158;24.748;2022-08-19T13:02:49;6.22;;;5.15;;
18526;SDS011;9393;42.158;24.748;2022-08-19T13:05:56;8.05;;;5.55;;
18526;SDS011;9393;42.158;24.748;2022-08-19T13:08:59;8.32;;;4.78;;
18526;SDS011;9393;42.158;24.748;2022-08-19T13:12:03;9.18;;;5.78;;
18526;SDS011;9393;42.158;24.748;2022-08-19T13:15:09;9.18;;;4.95;;
18526;SDS011;9393;42.158;24.748;2022-08-19T13:18:15;6.38;;;4.93;;
18526;SDS011;9393;42.158;24.748;2022-08-19T13:21:21;5.53;;;4.57;;
18526;SDS011;9393;42.158;24.748;2022-08-19T13:24:25;6.75;;;5.30;;
18526;SDS011;9393;42.158;24.748;2022-08-19T13:27:34;6.40;;;4.80;;
18526;SDS011;9393;42.158;24.748;2022-08-19T13:30:38;5.68;;;5.15;;
18526;SDS011;9393;42.158;24.748;2022-08-19T13:33:58;5.00;;;4.50;;
18526;SDS011;9393;42.158;24.748;2022-08-19T13:37:04;6.00;;;5.10;;
18526;SDS011;9393;42.158;24.748;2022-08-19T13:40:08;6.18;;;5.07;;
18526;SDS011;9393;42.158;24.748;2022-08-19T13:43:14;5.40;;;4.82;;
18526;SDS011;9393;42.158;24.748;2022-08-19T13:46:24;6.28;;;4.88;;
18526;SDS011;9393;42.158;24.748;2022-08-19T13:49:28;7.03;;;4.90;;
18526;SDS011;9393;42.158;24.748;2022-08-19T13:52:33;6.45;;;5.35;;
18526;SDS011;9393;42.158;24.748;2022-08-19T13:55:37;6.35;;;5.60;;
18526;SDS011;9393;42.158;24.748;2022-08-19T13:58:41;5.97;;;4.40;;
18526;SDS011;9393;42.158;24.748;2022-08-19T14:01:45;7.22;;;4.95;;
18526;SDS011;9393;42.158;24.748;2022-08-19T14:04:48;7.00;;;4.95;;
18526;SDS011;9393;42.158;24.748;2022-08-19T14:07:53;6.22;;;4.97;;
18526;SDS011;9393;42.158;24.748;2022-08-19T14:10:57;7.90;;;4.93;;
18526;SDS011;9393;42.158;24.748;2022-08-19T14:14:07;5.72;;;4.75;;
18526;SDS011;9393;42.158;24.748;2022-08-19T14:17:16;5.30;;;4.75;;
18526;SDS011;9393;42.158;24.748;2022-08-19T14:20:19;8.23;;;4.95;;
18526;SDS011;9393;42.158;24.748;2022-08-19T14:23:28;6.60;;;5.18;;
18526;SDS011;9393;42.158;24.748;2022-08-19T14:26:31;7.45;;;5.10;;
18526;SDS011;9393;42.158;24.748;2022-08-19T14:29:35;6.78;;;4.82;;
18526;SDS011;9393;42.158;24.748;2022-08-19T14:32:38;5.20;;;4.72;;
18526;SDS011;9393;42.158;24.748;2022-08-19T14:35:41;6.82;;;5.35;;
18526;SDS011;9393;42.158;24.748;2022-08-19T14:38:47;5.93;;;5.03;;
18526;SDS011;9393;42.158;24.748;2022-08-19T14:41:51;6.90;;;4.90;;
18526;SDS011;9393;42.158;24.748;2022-08-19T14:44:56;6.03;;;5.45;;
18526;SDS011;9393;42.158;24.748;2022-08-19T14:48:01;6.60;;;4.95;;
18526;SDS011;9393;42.158;24.748;2022-08-19T14:51:04;6.15;;;4.95;;
18526;SDS011;9393;42.158;24.748;2022-08-19T14:54:10;5.60;;;5.10;;
18526;SDS011;9393;42.158;24.748;2022-08-19T14:57:13;5.53;;;4.78;;
18526;SDS011;9393;42.158;24.748;2022-08-19T15:00:17;5.72;;;5.18;;
18526;SDS011;9393;42.158;24.748;2022-08-19T15:03:20;7.75;;;5.13;;
18526;SDS011;9393;42.158;24.748;2022-08-19T15:06:24;5.72;;;5.13;;
18526;SDS011;9393;42.158;24.748;2022-08-19T15:09:30;10.65;;;4.82;;
18526;SDS011;9393;42.158;24.748;2022-08-19T15:12:33;8.20;;;5.15;;
18526;SDS011;9393;42.158;24.748;2022-08-19T15:15:37;14.30;;;9.45;;
18526;SDS011;9393;42.158;24.748;2022-08-19T15:18:40;7.78;;;5.00;;
18526;SDS011;9393;42.158;24.748;2022-08-19T15:21:45;12.18;;;6.78;;
18526;SDS011;9393;42.158;24.748;2022-08-19T15:24:50;9.90;;;6.88;;
18526;SDS011;9393;42.158;24.748;2022-08-19T15:27:57;11.63;;;5.38;;
18526;SDS011;9393;42.158;24.748;2022-08-19T15:31:02;7.10;;;5.28;;
18526;SDS011;9393;42.158;24.748;2022-08-19T15:34:06;6.55;;;5.03;;
18526;SDS011;9393;42.158;24.748;2022-08-19T15:37:09;7.28;;;5.03;;
18526;SDS011;9393;42.158;24.748;2022-08-19T15:40:14;5.93;;;4.80;;
18526;SDS011;9393;42.158;24.748;2022-08-19T15:43:18;6.43;;;5.32;;
18526;SDS011;9393;42.158;24.748;2022-08-19T15:46:25;6.65;;;5.60;;
18526;SDS011;9393;42.158;24.748;2022-08-19T15:49:29;5.57;;;4.30;;
18526;SDS011;9393;42.158;24.748;2022-08-19T15:52:33;6.07;;;5.28;;
18526;SDS011;9393;42.158;24.748;2022-08-19T15:55:46;5.68;;;5.13;;
18526;SDS011;9393;42.158;24.748;2022-08-19T15:58:51;5.50;;;5.00;;
18526;SDS011;9393;42.158;24.748;2022-08-19T16:02:12;6.75;;;5.00;;
18526;SDS011;9393;42.158;24.748;2022-08-19T16:05:34;7.28;;;5.05;;
18526;SDS011;9393;42.158;24.748;2022-08-19T16:08:56;7.75;;;5.60;;
18526;SDS011;9393;42.158;24.748;2022-08-19T16:12:04;8.75;;;5.13;;
18526;SDS011;9393;42.158;24.748;2022-08-19T16:15:09;5.82;;;5.22;;
18526;SDS011;9393;42.158;24.748;2022-08-19T16:18:14;6.15;;;5.55;;
18526;SDS011;9393;42.158;24.748;2022-08-19T16:21:17;7.57;;;5.47;;
18526;SDS011;9393;42.158;24.748;2022-08-19T16:24:23;8.95;;;6.10;;
18526;SDS011;9393;42.158;24.748;2022-08-19T16:27:29;6.78;;;5.85;;
18526;SDS011;9393;42.158;24.748;2022-08-19T16:30:33;7.65;;;6.18;;
18526;SDS011;9393;42.158;24.748;2022-08-19T16:33:38;7.25;;;6.10;;
18526;SDS011;9393;42.158;24.748;2022-08-19T16:36:41;10.18;;;6.05;;
18526;SDS011;9393;42.158;24.748;2022-08-19T16:39:46;9.20;;;6.53;;
18526;SDS011;9393;42.158;24.748;2022-08-19T16:42:51;9.30;;;6.57;;
18526;SDS011;9393;42.158;24.748;2022-08-19T16:45:54;13.43;;;7.40;;
18526;SDS011;9393;42.158;24.748;2022-08-19T16:48:58;8.50;;;6.90;;
18526;SDS011;9393;42.158;24.748;2022-08-19T16:52:02;9.80;;;6.80;;
18526;SDS011;9393;42.158;24.748;2022-08-19T16:55:06;7.88;;;6.55;;
18526;SDS011;9393;42.158;24.748;2022-08-19T16:58:11;11.18;;;6.70;;
18526;SDS011;9393;42.158;24.748;2022-08-19T17:01:14;12.00;;;7.55;;
18526;SDS011;9393;42.158;24.748;2022-08-19T17:04:18;13.15;;;6.65;;
18526;SDS011;9393;42.158;24.748;2022-08-19T17:07:21;9.48;;;6.78;;
18526;SDS011;9393;42.158;24.748;2022-08-19T17:10:25;7.95;;;6.88;;
18526;SDS011;9393;42.158;24.748;2022-08-19T17:13:30;11.13;;;7.32;;
18526;SDS011;9393;42.158;24.748;2022-08-19T17:16:33;8.80;;;7.22;;
18526;SDS011;9393;42.158;24.748;2022-08-19T17:19:38;12.52;;;7.32;;
18526;SDS011;9393;42.158;24.748;2022-08-19T17:22:43;15.88;;;7.45;;
18526;SDS011;9393;42.158;24.748;2022-08-19T17:25:46;12.20;;;7.82;;
18526;SDS011;9393;42.158;24.748;2022-08-19T17:28:53;14.15;;;7.50;;
18526;SDS011;9393;42.158;24.748;2022-08-19T17:31:57;10.40;;;7.85;;
18526;SDS011;9393;42.158;24.748;2022-08-19T17:35:01;9.30;;;6.97;;
18526;SDS011;9393;42.158;24.748;2022-08-19T17:38:06;10.75;;;6.80;;
18526;SDS011;9393;42.158;24.748;2022-08-19T17:41:10;9.90;;;7.15;;
18526;SDS011;9393;42.158;24.748;2022-08-19T17:44:15;11.70;;;7.35;;
18526;SDS011;9393;42.158;24.748;2022-08-19T17:47:19;11.30;;;7.40;;
18526;SDS011;9393;42.158;24.748;2022-08-19T17:50:22;10.75;;;6.90;;
18526;SDS011;9393;42.158;24.748;2022-08-19T17:53:26;14.60;;;9.93;;
18526;SDS011;9393;42.158;24.748;2022-08-19T17:56:30;13.50;;;8.20;;
18526;SDS011;9393;42.158;24.748;2022-08-19T17:59:34;11.38;;;7.82;;
18526;SDS011;9393;42.158;24.748;2022-08-19T18:02:48;25.00;;;14.90;;
18526;SDS011;9393;42.158;24.748;2022-08-19T18:05:53;21.17;;;10.15;;
18526;SDS011;9393;42.158;24.748;2022-08-19T18:08:57;11.63;;;7.70;;
18526;SDS011;9393;42.158;24.748;2022-08-19T18:12:01;13.60;;;7.30;;
18526;SDS011;9393;42.158;24.748;2022-08-19T18:15:07;10.75;;;7.90;;
18526;SDS011;9393;42.158;24.748;2022-08-19T18:18:11;10.70;;;7.43;;
18526;SDS011;9393;42.158;24.748;2022-08-19T18:21:16;10.50;;;6.97;;
18526;SDS011;9393;42.158;24.748;2022-08-19T18:24:19;11.23;;;7.20;;
18526;SDS011;9393;42.158;24.748;2022-08-19T18:27:23;12.98;;;7.80;;
18526;SDS011;9393;42.158;24.748;2022-08-19T18:30:29;11.02;;;7.00;;
18526;SDS011;9393;42.158;24.748;2022-08-19T18:33:34;9.40;;;6.65;;